首页
METAR-TAF:

METAR-TAF

机场 :

Julian Carroll Airport

杰克逊, 肯塔基州, 美国

纬度: 37-35-29N, 经度: 083-18-52W, 海拔: 421米

当前天气观测

该预报发布于6分钟前的14:10 UTC
静风
温度 23°C
湿度 89%
气压 1018 hPa
能見度: 16.1公里
少量云层高于500英尺

METAR: KJKL 201410Z AUTO 00000KT 10SM FEW005 23/21 A3005 RMK AO2 T02330211

时间: 10:16 (14:16 UTC)

预报

该预报发布于2小时和47分钟前的11:29 UTC
预报有效从20日的 12点(UTC)到 21日的 12点(UTC)
风速节,风向
能見度: 10公里
散云层高于10000英尺
散云层高于30000英尺
从 20日的 1700点(UTC)
风速3节,风向多变
能見度: 10公里
散云层高于3000英尺, 积雨云.
散云层高于15000英尺
附近有雷暴
从 21日的 0300点(UTC)
风速3节,风向多变
能見度: 10公里
散云层高于5000英尺
散云层高于15000英尺
多云层高于25000英尺

TAF: KJKL 201129Z 2012/2112 00000KT P6SM SCT100 SCT300 FM201700 VRB03KT P6SM VCTS SCT030CB SCT150 FM210300 VRB03KT P6SM SCT050 SCT150 BKN250

超过4000个机场的气象观测和天气预报(METAR&TAF报告)。

可查询的气象台以黄色和红色小点在地图上表示。

将鼠标移到小点上方,可查看气象台名称。

然后点击查看天气观测和预报。

如需切换地图:点击带黑十字的绿色按钮放大地图;点击带横线的绿色按钮缩小地图;或者点击绿色箭头查看邻近地区的地图。


METAR-TAF: